sensor_id;sensor_type;location;lat;lon;timestamp;P1;durP1;ratioP1;P2;durP2;ratioP2
70320;SDS011;61127;55.826;37.046;2023-11-19T00:00:35;40.47;;;13.53;;
70320;SDS011;61127;55.826;37.046;2023-11-19T00:03:01;37.67;;;13.93;;
70320;SDS011;61127;55.826;37.046;2023-11-19T00:05:27;36.75;;;13.43;;
70320;SDS011;61127;55.826;37.046;2023-11-19T00:07:53;39.25;;;14.00;;
70320;SDS011;61127;55.826;37.046;2023-11-19T00:10:19;37.17;;;14.13;;
70320;SDS011;61127;55.826;37.046;2023-11-19T00:12:47;37.33;;;14.77;;
70320;SDS011;61127;55.826;37.046;2023-11-19T00:15:15;38.60;;;14.20;;
70320;SDS011;61127;55.826;37.046;2023-11-19T00:17:47;36.00;;;14.23;;
70320;SDS011;61127;55.826;37.046;2023-11-19T00:20:14;37.25;;;13.40;;
70320;SDS011;61127;55.826;37.046;2023-11-19T00:22:41;33.87;;;13.77;;
70320;SDS011;61127;55.826;37.046;2023-11-19T00:25:11;41.38;;;14.25;;
70320;SDS011;61127;55.826;37.046;2023-11-19T00:27:37;34.90;;;15.18;;
70320;SDS011;61127;55.826;37.046;2023-11-19T00:30:04;37.03;;;13.48;;
70320;SDS011;61127;55.826;37.046;2023-11-19T00:32:33;38.28;;;14.68;;
70320;SDS011;61127;55.826;37.046;2023-11-19T00:35:00;34.53;;;14.07;;
70320;SDS011;61127;55.826;37.046;2023-11-19T00:37:27;42.28;;;14.27;;
70320;SDS011;61127;55.826;37.046;2023-11-19T00:39:53;35.97;;;13.27;;
70320;SDS011;61127;55.826;37.046;2023-11-19T00:42:22;37.60;;;14.63;;
70320;SDS011;61127;55.826;37.046;2023-11-19T00:44:50;35.10;;;14.00;;
70320;SDS011;61127;55.826;37.046;2023-11-19T00:47:16;33.13;;;13.77;;
70320;SDS011;61127;55.826;37.046;2023-11-19T00:49:43;41.95;;;13.82;;
70320;SDS011;61127;55.826;37.046;2023-11-19T00:52:09;36.78;;;13.05;;
70320;SDS011;61127;55.826;37.046;2023-11-19T00:54:35;42.28;;;14.27;;
70320;SDS011;61127;55.826;37.046;2023-11-19T00:57:01;35.50;;;13.80;;
70320;SDS011;61127;55.826;37.046;2023-11-19T00:59:27;38.97;;;13.10;;
70320;SDS011;61127;55.826;37.046;2023-11-19T01:01:54;38.70;;;14.25;;
70320;SDS011;61127;55.826;37.046;2023-11-19T01:04:21;43.38;;;14.02;;
70320;SDS011;61127;55.826;37.046;2023-11-19T01:06:47;41.53;;;15.30;;
70320;SDS011;61127;55.826;37.046;2023-11-19T01:09:13;37.73;;;15.10;;
70320;SDS011;61127;55.826;37.046;2023-11-19T01:11:40;39.88;;;14.73;;
70320;SDS011;61127;55.826;37.046;2023-11-19T01:14:06;46.58;;;14.85;;
70320;SDS011;61127;55.826;37.046;2023-11-19T01:16:31;38.57;;;13.53;;
70320;SDS011;61127;55.826;37.046;2023-11-19T01:18:58;39.45;;;14.60;;
70320;SDS011;61127;55.826;37.046;2023-11-19T01:21:24;41.97;;;14.05;;
70320;SDS011;61127;55.826;37.046;2023-11-19T01:23:50;35.50;;;13.57;;
70320;SDS011;61127;55.826;37.046;2023-11-19T01:26:16;38.23;;;14.87;;
70320;SDS011;61127;55.826;37.046;2023-11-19T01:28:42;42.28;;;17.45;;
70320;SDS011;61127;55.826;37.046;2023-11-19T01:31:16;41.08;;;15.23;;
70320;SDS011;61127;55.826;37.046;2023-11-19T01:33:42;46.38;;;14.45;;
70320;SDS011;61127;55.826;37.046;2023-11-19T01:36:09;41.30;;;13.77;;
70320;SDS011;61127;55.826;37.046;2023-11-19T01:38:38;44.28;;;16.25;;
70320;SDS011;61127;55.826;37.046;2023-11-19T01:41:04;41.65;;;14.20;;
70320;SDS011;61127;55.826;37.046;2023-11-19T01:43:37;47.38;;;15.90;;
70320;SDS011;61127;55.826;37.046;2023-11-19T01:46:04;44.45;;;16.17;;
70320;SDS011;61127;55.826;37.046;2023-11-19T01:48:35;44.77;;;14.53;;
70320;SDS011;61127;55.826;37.046;2023-11-19T01:51:06;33.70;;;14.43;;
70320;SDS011;61127;55.826;37.046;2023-11-19T01:53:34;36.85;;;14.23;;
70320;SDS011;61127;55.826;37.046;2023-11-19T01:56:03;35.78;;;13.32;;
70320;SDS011;61127;55.826;37.046;2023-11-19T01:58:37;37.28;;;14.40;;
70320;SDS011;61127;55.826;37.046;2023-11-19T02:01:08;37.37;;;14.07;;
70320;SDS011;61127;55.826;37.046;2023-11-19T02:03:35;35.72;;;16.15;;
70320;SDS011;61127;55.826;37.046;2023-11-19T02:06:02;42.47;;;14.27;;
70320;SDS011;61127;55.826;37.046;2023-11-19T02:08:29;40.22;;;14.93;;
70320;SDS011;61127;55.826;37.046;2023-11-19T02:10:56;45.17;;;15.25;;
70320;SDS011;61127;55.826;37.046;2023-11-19T02:13:26;43.80;;;15.97;;
70320;SDS011;61127;55.826;37.046;2023-11-19T02:15:55;38.90;;;14.82;;
70320;SDS011;61127;55.826;37.046;2023-11-19T02:18:22;37.35;;;14.13;;
70320;SDS011;61127;55.826;37.046;2023-11-19T02:20:57;38.30;;;15.27;;
70320;SDS011;61127;55.826;37.046;2023-11-19T02:23:25;39.70;;;14.95;;
70320;SDS011;61127;55.826;37.046;2023-11-19T02:25:57;44.00;;;15.43;;
70320;SDS011;61127;55.826;37.046;2023-11-19T02:28:35;44.70;;;13.80;;
70320;SDS011;61127;55.826;37.046;2023-11-19T02:31:03;34.05;;;13.52;;
70320;SDS011;61127;55.826;37.046;2023-11-19T02:33:35;37.40;;;14.35;;
70320;SDS011;61127;55.826;37.046;2023-11-19T02:36:03;35.05;;;13.85;;
70320;SDS011;61127;55.826;37.046;2023-11-19T02:38:30;32.23;;;13.87;;
70320;SDS011;61127;55.826;37.046;2023-11-19T02:40:56;33.88;;;13.07;;
70320;SDS011;61127;55.826;37.046;2023-11-19T02:43:22;36.88;;;14.43;;
70320;SDS011;61127;55.826;37.046;2023-11-19T02:45:48;37.50;;;13.93;;
70320;SDS011;61127;55.826;37.046;2023-11-19T02:48:16;34.73;;;13.10;;
70320;SDS011;61127;55.826;37.046;2023-11-19T02:50:42;33.67;;;13.57;;
70320;SDS011;61127;55.826;37.046;2023-11-19T02:53:08;35.17;;;13.50;;
70320;SDS011;61127;55.826;37.046;2023-11-19T02:55:34;38.90;;;13.10;;
70320;SDS011;61127;55.826;37.046;2023-11-19T02:58:04;32.75;;;13.07;;
70320;SDS011;61127;55.826;37.046;2023-11-19T03:00:45;37.63;;;13.18;;
70320;SDS011;61127;55.826;37.046;2023-11-19T03:03:23;42.95;;;14.05;;
70320;SDS011;61127;55.826;37.046;2023-11-19T03:05:54;37.42;;;13.43;;
70320;SDS011;61127;55.826;37.046;2023-11-19T03:08:20;31.07;;;12.77;;
70320;SDS011;61127;55.826;37.046;2023-11-19T03:10:47;33.53;;;12.75;;
70320;SDS011;61127;55.826;37.046;2023-11-19T03:13:14;40.60;;;13.93;;
70320;SDS011;61127;55.826;37.046;2023-11-19T03:15:41;30.50;;;12.68;;
70320;SDS011;61127;55.826;37.046;2023-11-19T03:18:07;36.85;;;14.43;;
70320;SDS011;61127;55.826;37.046;2023-11-19T03:20:34;34.03;;;12.97;;
70320;SDS011;61127;55.826;37.046;2023-11-19T03:23:00;35.72;;;13.48;;
70320;SDS011;61127;55.826;37.046;2023-11-19T03:25:27;37.45;;;13.45;;
70320;SDS011;61127;55.826;37.046;2023-11-19T03:28:00;35.80;;;13.15;;
70320;SDS011;61127;55.826;37.046;2023-11-19T03:30:27;38.90;;;14.98;;
70320;SDS011;61127;55.826;37.046;2023-11-19T03:32:54;40.20;;;14.03;;
70320;SDS011;61127;55.826;37.046;2023-11-19T03:35:21;41.05;;;15.45;;
70320;SDS011;61127;55.826;37.046;2023-11-19T03:37:47;34.60;;;14.18;;
70320;SDS011;61127;55.826;37.046;2023-11-19T03:40:16;41.45;;;15.77;;
70320;SDS011;61127;55.826;37.046;2023-11-19T03:42:46;34.60;;;14.27;;
70320;SDS011;61127;55.826;37.046;2023-11-19T03:45:12;38.65;;;14.55;;
70320;SDS011;61127;55.826;37.046;2023-11-19T03:47:38;35.75;;;14.00;;
70320;SDS011;61127;55.826;37.046;2023-11-19T03:50:05;41.85;;;14.88;;
70320;SDS011;61127;55.826;37.046;2023-11-19T03:52:33;38.88;;;14.38;;
70320;SDS011;61127;55.826;37.046;2023-11-19T03:55:00;38.27;;;14.60;;
70320;SDS011;61127;55.826;37.046;2023-11-19T03:57:29;37.95;;;13.30;;
70320;SDS011;61127;55.826;37.046;2023-11-19T03:59:55;41.53;;;15.27;;
70320;SDS011;61127;55.826;37.046;2023-11-19T04:02:21;40.95;;;15.50;;
70320;SDS011;61127;55.826;37.046;2023-11-19T04:04:47;43.83;;;14.98;;
70320;SDS011;61127;55.826;37.046;2023-11-19T04:07:13;42.78;;;15.52;;
70320;SDS011;61127;55.826;37.046;2023-11-19T04:09:39;41.83;;;14.60;;
70320;SDS011;61127;55.826;37.046;2023-11-19T04:12:05;35.75;;;14.52;;
70320;SDS011;61127;55.826;37.046;2023-11-19T04:14:32;37.70;;;14.77;;
70320;SDS011;61127;55.826;37.046;2023-11-19T04:16:58;41.30;;;15.38;;
70320;SDS011;61127;55.826;37.046;2023-11-19T04:19:24;41.15;;;15.43;;
70320;SDS011;61127;55.826;37.046;2023-11-19T04:21:50;45.05;;;15.77;;
70320;SDS011;61127;55.826;37.046;2023-11-19T04:24:17;38.30;;;15.07;;
70320;SDS011;61127;55.826;37.046;2023-11-19T04:26:44;46.03;;;15.82;;
70320;SDS011;61127;55.826;37.046;2023-11-19T04:29:11;46.90;;;17.40;;
70320;SDS011;61127;55.826;37.046;2023-11-19T04:31:41;46.70;;;15.57;;
70320;SDS011;61127;55.826;37.046;2023-11-19T04:34:07;41.60;;;17.20;;
70320;SDS011;61127;55.826;37.046;2023-11-19T04:36:33;43.30;;;15.63;;
70320;SDS011;61127;55.826;37.046;2023-11-19T04:39:00;43.75;;;15.73;;
70320;SDS011;61127;55.826;37.046;2023-11-19T04:41:26;44.75;;;16.15;;
70320;SDS011;61127;55.826;37.046;2023-11-19T04:43:53;38.35;;;16.42;;
70320;SDS011;61127;55.826;37.046;2023-11-19T04:46:20;39.80;;;15.23;;
70320;SDS011;61127;55.826;37.046;2023-11-19T04:48:46;48.33;;;17.20;;
70320;SDS011;61127;55.826;37.046;2023-11-19T04:51:12;42.80;;;15.65;;
70320;SDS011;61127;55.826;37.046;2023-11-19T04:53:41;46.22;;;16.42;;
70320;SDS011;61127;55.826;37.046;2023-11-19T04:56:11;45.35;;;16.67;;
70320;SDS011;61127;55.826;37.046;2023-11-19T04:58:37;44.17;;;15.80;;
70320;SDS011;61127;55.826;37.046;2023-11-19T05:01:03;39.50;;;15.90;;
70320;SDS011;61127;55.826;37.046;2023-11-19T05:03:30;35.45;;;14.10;;
70320;SDS011;61127;55.826;37.046;2023-11-19T05:05:57;40.38;;;15.68;;
70320;SDS011;61127;55.826;37.046;2023-11-19T05:08:24;42.10;;;15.90;;
70320;SDS011;61127;55.826;37.046;2023-11-19T05:10:50;37.35;;;15.68;;
70320;SDS011;61127;55.826;37.046;2023-11-19T05:13:16;43.88;;;16.10;;
70320;SDS011;61127;55.826;37.046;2023-11-19T05:15:42;36.60;;;14.85;;
70320;SDS011;61127;55.826;37.046;2023-11-19T05:18:09;39.57;;;14.83;;
70320;SDS011;61127;55.826;37.046;2023-11-19T05:20:35;36.53;;;15.07;;
70320;SDS011;61127;55.826;37.046;2023-11-19T05:23:01;49.03;;;17.42;;
70320;SDS011;61127;55.826;37.046;2023-11-19T05:25:27;43.70;;;15.70;;
70320;SDS011;61127;55.826;37.046;2023-11-19T05:27:53;37.17;;;14.87;;
70320;SDS011;61127;55.826;37.046;2023-11-19T05:30:19;37.50;;;14.52;;
70320;SDS011;61127;55.826;37.046;2023-11-19T05:32:45;33.92;;;14.40;;
70320;SDS011;61127;55.826;37.046;2023-11-19T05:35:12;39.88;;;15.05;;
70320;SDS011;61127;55.826;37.046;2023-11-19T05:37:38;38.38;;;14.68;;
70320;SDS011;61127;55.826;37.046;2023-11-19T05:40:05;41.23;;;14.03;;
70320;SDS011;61127;55.826;37.046;2023-11-19T05:42:40;41.00;;;15.38;;
70320;SDS011;61127;55.826;37.046;2023-11-19T05:45:07;35.30;;;15.40;;
70320;SDS011;61127;55.826;37.046;2023-11-19T05:47:36;43.33;;;13.45;;
70320;SDS011;61127;55.826;37.046;2023-11-19T05:50:02;47.47;;;16.10;;
70320;SDS011;61127;55.826;37.046;2023-11-19T05:52:30;42.78;;;13.93;;
70320;SDS011;61127;55.826;37.046;2023-11-19T05:55:02;36.78;;;14.52;;
70320;SDS011;61127;55.826;37.046;2023-11-19T05:57:40;34.28;;;12.38;;
70320;SDS011;61127;55.826;37.046;2023-11-19T06:00:08;38.42;;;13.23;;
70320;SDS011;61127;55.826;37.046;2023-11-19T06:02:39;34.17;;;14.33;;
70320;SDS011;61127;55.826;37.046;2023-11-19T06:05:12;35.00;;;14.10;;
70320;SDS011;61127;55.826;37.046;2023-11-19T06:07:40;36.67;;;13.60;;
70320;SDS011;61127;55.826;37.046;2023-11-19T06:10:07;34.13;;;13.52;;
70320;SDS011;61127;55.826;37.046;2023-11-19T06:12:35;40.60;;;13.60;;
70320;SDS011;61127;55.826;37.046;2023-11-19T06:15:07;29.87;;;13.30;;
70320;SDS011;61127;55.826;37.046;2023-11-19T06:21:26;39.92;;;14.05;;
70320;SDS011;61127;55.826;37.046;2023-11-19T06:24:13;32.40;;;11.63;;
70320;SDS011;61127;55.826;37.046;2023-11-19T06:26:42;33.30;;;12.68;;
70320;SDS011;61127;55.826;37.046;2023-11-19T06:29:08;31.87;;;12.90;;
70320;SDS011;61127;55.826;37.046;2023-11-19T06:31:34;39.53;;;14.45;;
70320;SDS011;61127;55.826;37.046;2023-11-19T06:34:00;36.47;;;13.10;;
70320;SDS011;61127;55.826;37.046;2023-11-19T06:36:26;34.73;;;12.57;;
70320;SDS011;61127;55.826;37.046;2023-11-19T06:38:52;36.97;;;13.45;;
70320;SDS011;61127;55.826;37.046;2023-11-19T06:41:18;31.45;;;12.95;;
70320;SDS011;61127;55.826;37.046;2023-11-19T06:43:44;30.55;;;12.90;;
70320;SDS011;61127;55.826;37.046;2023-11-19T06:46:16;37.17;;;13.23;;
70320;SDS011;61127;55.826;37.046;2023-11-19T06:48:43;33.75;;;15.00;;
70320;SDS011;61127;55.826;37.046;2023-11-19T06:51:10;37.97;;;13.70;;
70320;SDS011;61127;55.826;37.046;2023-11-19T06:53:36;37.30;;;13.73;;
70320;SDS011;61127;55.826;37.046;2023-11-19T06:56:12;30.50;;;13.13;;
70320;SDS011;61127;55.826;37.046;2023-11-19T06:59:15;29.77;;;12.25;;
70320;SDS011;61127;55.826;37.046;2023-11-19T07:04:55;31.42;;;12.73;;
70320;SDS011;61127;55.826;37.046;2023-11-19T07:08:01;32.28;;;11.55;;
70320;SDS011;61127;55.826;37.046;2023-11-19T07:11:16;31.60;;;12.67;;
70320;SDS011;61127;55.826;37.046;2023-11-19T07:17:41;30.17;;;12.40;;
70320;SDS011;61127;55.826;37.046;2023-11-19T07:20:22;32.38;;;13.25;;
70320;SDS011;61127;55.826;37.046;2023-11-19T07:22:52;31.55;;;12.48;;
70320;SDS011;61127;55.826;37.046;2023-11-19T07:25:18;32.30;;;12.33;;
70320;SDS011;61127;55.826;37.046;2023-11-19T07:27:51;30.98;;;11.98;;
70320;SDS011;61127;55.826;37.046;2023-11-19T07:30:19;36.10;;;12.80;;
70320;SDS011;61127;55.826;37.046;2023-11-19T07:32:55;33.45;;;12.68;;
70320;SDS011;61127;55.826;37.046;2023-11-19T07:35:24;22.35;;;9.23;;
70320;SDS011;61127;55.826;37.046;2023-11-19T07:37:51;30.80;;;11.80;;
70320;SDS011;61127;55.826;37.046;2023-11-19T07:40:18;29.50;;;13.15;;
70320;SDS011;61127;55.826;37.046;2023-11-19T07:42:45;33.47;;;13.13;;
70320;SDS011;61127;55.826;37.046;2023-11-19T07:45:14;27.98;;;11.55;;
70320;SDS011;61127;55.826;37.046;2023-11-19T07:47:46;26.48;;;11.90;;
70320;SDS011;61127;55.826;37.046;2023-11-19T07:53:42;25.73;;;11.23;;
70320;SDS011;61127;55.826;37.046;2023-11-19T07:56:12;29.08;;;11.55;;
70320;SDS011;61127;55.826;37.046;2023-11-19T07:58:57;28.15;;;11.52;;
70320;SDS011;61127;55.826;37.046;2023-11-19T08:01:38;28.08;;;11.90;;
70320;SDS011;61127;55.826;37.046;2023-11-19T08:04:08;24.67;;;12.10;;
70320;SDS011;61127;55.826;37.046;2023-11-19T08:06:42;27.15;;;11.52;;
70320;SDS011;61127;55.826;37.046;2023-11-19T08:09:20;31.27;;;10.73;;
70320;SDS011;61127;55.826;37.046;2023-11-19T08:12:18;30.38;;;12.05;;
70320;SDS011;61127;55.826;37.046;2023-11-19T08:14:54;26.73;;;12.35;;
70320;SDS011;61127;55.826;37.046;2023-11-19T08:17:20;27.13;;;12.33;;
70320;SDS011;61127;55.826;37.046;2023-11-19T08:19:48;30.90;;;12.48;;
70320;SDS011;61127;55.826;37.046;2023-11-19T08:22:14;32.22;;;13.05;;
70320;SDS011;61127;55.826;37.046;2023-11-19T08:24:40;36.80;;;14.77;;
70320;SDS011;61127;55.826;37.046;2023-11-19T08:27:07;39.93;;;15.93;;
70320;SDS011;61127;55.826;37.046;2023-11-19T08:29:32;37.15;;;15.93;;
70320;SDS011;61127;55.826;37.046;2023-11-19T08:32:00;35.92;;;16.25;;
70320;SDS011;61127;55.826;37.046;2023-11-19T08:34:27;41.10;;;19.13;;
70320;SDS011;61127;55.826;37.046;2023-11-19T08:36:53;43.27;;;17.97;;
70320;SDS011;61127;55.826;37.046;2023-11-19T08:39:19;41.70;;;17.88;;
70320;SDS011;61127;55.826;37.046;2023-11-19T08:41:49;41.92;;;18.17;;
70320;SDS011;61127;55.826;37.046;2023-11-19T08:44:16;40.83;;;18.33;;
70320;SDS011;61127;55.826;37.046;2023-11-19T08:46:48;47.90;;;19.38;;
70320;SDS011;61127;55.826;37.046;2023-11-19T08:49:15;43.17;;;18.77;;
70320;SDS011;61127;55.826;37.046;2023-11-19T08:51:41;44.97;;;19.35;;
70320;SDS011;61127;55.826;37.046;2023-11-19T08:54:07;48.83;;;19.65;;
70320;SDS011;61127;55.826;37.046;2023-11-19T08:56:33;55.58;;;21.50;;
70320;SDS011;61127;55.826;37.046;2023-11-19T08:59:01;53.25;;;21.50;;
70320;SDS011;61127;55.826;37.046;2023-11-19T09:01:27;53.30;;;22.23;;
70320;SDS011;61127;55.826;37.046;2023-11-19T09:03:54;51.58;;;21.58;;
70320;SDS011;61127;55.826;37.046;2023-11-19T09:06:20;49.72;;;20.42;;
70320;SDS011;61127;55.826;37.046;2023-11-19T09:08:46;53.78;;;21.73;;
70320;SDS011;61127;55.826;37.046;2023-11-19T09:11:11;56.22;;;23.40;;
70320;SDS011;61127;55.826;37.046;2023-11-19T09:13:40;58.67;;;24.85;;
70320;SDS011;61127;55.826;37.046;2023-11-19T09:16:06;53.05;;;22.60;;
70320;SDS011;61127;55.826;37.046;2023-11-19T09:18:32;57.77;;;22.67;;
70320;SDS011;61127;55.826;37.046;2023-11-19T09:20:58;54.00;;;21.23;;
70320;SDS011;61127;55.826;37.046;2023-11-19T09:23:24;44.47;;;17.70;;
70320;SDS011;61127;55.826;37.046;2023-11-19T09:25:50;43.03;;;16.73;;
70320;SDS011;61127;55.826;37.046;2023-11-19T09:28:16;41.40;;;15.25;;
70320;SDS011;61127;55.826;37.046;2023-11-19T09:30:42;37.05;;;15.30;;
70320;SDS011;61127;55.826;37.046;2023-11-19T09:33:08;35.40;;;13.98;;
70320;SDS011;61127;55.826;37.046;2023-11-19T09:35:35;29.80;;;12.35;;
70320;SDS011;61127;55.826;37.046;2023-11-19T09:38:00;33.87;;;13.20;;
70320;SDS011;61127;55.826;37.046;2023-11-19T09:40:27;26.50;;;12.45;;
70320;SDS011;61127;55.826;37.046;2023-11-19T09:42:54;26.98;;;12.65;;
70320;SDS011;61127;55.826;37.046;2023-11-19T09:45:20;26.52;;;11.05;;
70320;SDS011;61127;55.826;37.046;2023-11-19T09:47:47;28.33;;;10.67;;
70320;SDS011;61127;55.826;37.046;2023-11-19T09:50:17;27.90;;;11.45;;
70320;SDS011;61127;55.826;37.046;2023-11-19T09:52:44;22.15;;;9.80;;
70320;SDS011;61127;55.826;37.046;2023-11-19T09:55:11;28.35;;;9.65;;
70320;SDS011;61127;55.826;37.046;2023-11-19T09:57:38;21.83;;;8.85;;
70320;SDS011;61127;55.826;37.046;2023-11-19T10:00:07;25.77;;;8.47;;
70320;SDS011;61127;55.826;37.046;2023-11-19T10:02:35;19.05;;;8.48;;
70320;SDS011;61127;55.826;37.046;2023-11-19T10:05:11;22.02;;;8.52;;
70320;SDS011;61127;55.826;37.046;2023-11-19T10:07:41;23.38;;;8.23;;
70320;SDS011;61127;55.826;37.046;2023-11-19T10:10:08;23.65;;;9.07;;
70320;SDS011;61127;55.826;37.046;2023-11-19T10:12:36;19.50;;;8.00;;
70320;SDS011;61127;55.826;37.046;2023-11-19T10:15:02;16.75;;;6.78;;
70320;SDS011;61127;55.826;37.046;2023-11-19T10:17:33;18.85;;;7.03;;
70320;SDS011;61127;55.826;37.046;2023-11-19T10:20:00;14.90;;;6.78;;
70320;SDS011;61127;55.826;37.046;2023-11-19T10:22:30;14.88;;;6.63;;
70320;SDS011;61127;55.826;37.046;2023-11-19T10:24:56;16.40;;;6.57;;
70320;SDS011;61127;55.826;37.046;2023-11-19T10:27:25;13.55;;;6.35;;
70320;SDS011;61127;55.826;37.046;2023-11-19T10:29:51;15.93;;;5.78;;
70320;SDS011;61127;55.826;37.046;2023-11-19T10:32:17;15.13;;;5.97;;
70320;SDS011;61127;55.826;37.046;2023-11-19T10:34:43;14.45;;;5.07;;
70320;SDS011;61127;55.826;37.046;2023-11-19T10:40:07;15.13;;;5.30;;
70320;SDS011;61127;55.826;37.046;2023-11-19T10:42:36;15.15;;;4.55;;
70320;SDS011;61127;55.826;37.046;2023-11-19T10:45:21;11.87;;;4.77;;
70320;SDS011;61127;55.826;37.046;2023-11-19T10:47:51;12.07;;;4.93;;
70320;SDS011;61127;55.826;37.046;2023-11-19T10:50:20;12.35;;;4.65;;
70320;SDS011;61127;55.826;37.046;2023-11-19T10:52:49;13.52;;;5.10;;
70320;SDS011;61127;55.826;37.046;2023-11-19T10:55:22;14.68;;;4.80;;
70320;SDS011;61127;55.826;37.046;2023-11-19T10:58:02;15.20;;;4.80;;
70320;SDS011;61127;55.826;37.046;2023-11-19T11:00:33;14.65;;;5.43;;
70320;SDS011;61127;55.826;37.046;2023-11-19T11:03:00;15.55;;;6.28;;
70320;SDS011;61127;55.826;37.046;2023-11-19T11:05:32;19.00;;;7.22;;
70320;SDS011;61127;55.826;37.046;2023-11-19T11:08:01;19.65;;;7.13;;
70320;SDS011;61127;55.826;37.046;2023-11-19T11:10:31;19.87;;;7.93;;
70320;SDS011;61127;55.826;37.046;2023-11-19T11:13:02;18.70;;;6.93;;
70320;SDS011;61127;55.826;37.046;2023-11-19T11:15:30;16.83;;;7.40;;
70320;SDS011;61127;55.826;37.046;2023-11-19T11:17:59;21.88;;;7.68;;
70320;SDS011;61127;55.826;37.046;2023-11-19T11:20:33;17.20;;;7.20;;
70320;SDS011;61127;55.826;37.046;2023-11-19T11:25:44;17.65;;;7.00;;
70320;SDS011;61127;55.826;37.046;2023-11-19T11:34:21;15.10;;;6.05;;
70320;SDS011;61127;55.826;37.046;2023-11-19T11:39:34;11.45;;;5.40;;
70320;SDS011;61127;55.826;37.046;2023-11-19T11:45:01;13.73;;;5.40;;
70320;SDS011;61127;55.826;37.046;2023-11-19T11:50:17;12.53;;;5.87;;
70320;SDS011;61127;55.826;37.046;2023-11-19T11:58:02;17.58;;;6.63;;
70320;SDS011;61127;55.826;37.046;2023-11-19T12:00:30;16.00;;;7.10;;
70320;SDS011;61127;55.826;37.046;2023-11-19T12:03:04;20.40;;;7.90;;
70320;SDS011;61127;55.826;37.046;2023-11-19T12:05:32;13.95;;;6.65;;
70320;SDS011;61127;55.826;37.046;2023-11-19T12:08:00;16.38;;;7.05;;
70320;SDS011;61127;55.826;37.046;2023-11-19T12:10:31;14.45;;;6.63;;
70320;SDS011;61127;55.826;37.046;2023-11-19T12:12:58;18.48;;;6.80;;
70320;SDS011;61127;55.826;37.046;2023-11-19T12:15:25;16.23;;;6.80;;
70320;SDS011;61127;55.826;37.046;2023-11-19T12:17:54;15.60;;;6.80;;
70320;SDS011;61127;55.826;37.046;2023-11-19T12:20:21;18.73;;;7.15;;
70320;SDS011;61127;55.826;37.046;2023-11-19T12:22:49;18.98;;;7.65;;
70320;SDS011;61127;55.826;37.046;2023-11-19T12:25:16;16.15;;;6.80;;
70320;SDS011;61127;55.826;37.046;2023-11-19T12:27:48;15.80;;;6.97;;
70320;SDS011;61127;55.826;37.046;2023-11-19T12:30:25;27.40;;;7.22;;
70320;SDS011;61127;55.826;37.046;2023-11-19T12:32:51;16.60;;;6.82;;
70320;SDS011;61127;55.826;37.046;2023-11-19T12:35:22;15.10;;;6.22;;
70320;SDS011;61127;55.826;37.046;2023-11-19T12:37:49;16.40;;;7.38;;
70320;SDS011;61127;55.826;37.046;2023-11-19T12:40:17;12.03;;;6.40;;
70320;SDS011;61127;55.826;37.046;2023-11-19T12:42:45;20.25;;;7.43;;
70320;SDS011;61127;55.826;37.046;2023-11-19T12:45:12;17.00;;;6.75;;
70320;SDS011;61127;55.826;37.046;2023-11-19T12:47:39;15.00;;;6.75;;
70320;SDS011;61127;55.826;37.046;2023-11-19T12:50:08;14.75;;;6.35;;
70320;SDS011;61127;55.826;37.046;2023-11-19T12:52:35;16.37;;;7.23;;
70320;SDS011;61127;55.826;37.046;2023-11-19T12:55:06;15.93;;;6.20;;
70320;SDS011;61127;55.826;37.046;2023-11-19T12:57:56;17.55;;;6.53;;
70320;SDS011;61127;55.826;37.046;2023-11-19T13:00:24;17.85;;;6.47;;
70320;SDS011;61127;55.826;37.046;2023-11-19T13:02:52;18.77;;;6.80;;
70320;SDS011;61127;55.826;37.046;2023-11-19T13:05:21;15.93;;;6.97;;
70320;SDS011;61127;55.826;37.046;2023-11-19T13:07:57;15.52;;;6.70;;
70320;SDS011;61127;55.826;37.046;2023-11-19T13:10:26;17.92;;;6.68;;
70320;SDS011;61127;55.826;37.046;2023-11-19T13:13:06;16.85;;;6.88;;
70320;SDS011;61127;55.826;37.046;2023-11-19T13:15:34;15.25;;;6.20;;
70320;SDS011;61127;55.826;37.046;2023-11-19T13:18:01;21.10;;;6.87;;
70320;SDS011;61127;55.826;37.046;2023-11-19T13:20:28;16.42;;;6.38;;
70320;SDS011;61127;55.826;37.046;2023-11-19T13:22:58;14.82;;;6.10;;
70320;SDS011;61127;55.826;37.046;2023-11-19T13:25:25;15.00;;;6.15;;
70320;SDS011;61127;55.826;37.046;2023-11-19T13:27:52;17.38;;;6.18;;
70320;SDS011;61127;55.826;37.046;2023-11-19T13:30:18;13.47;;;6.23;;
70320;SDS011;61127;55.826;37.046;2023-11-19T13:32:44;13.70;;;6.18;;
70320;SDS011;61127;55.826;37.046;2023-11-19T13:35:12;14.98;;;5.82;;
70320;SDS011;61127;55.826;37.046;2023-11-19T13:37:38;13.23;;;6.10;;
70320;SDS011;61127;55.826;37.046;2023-11-19T13:40:06;13.93;;;6.05;;
70320;SDS011;61127;55.826;37.046;2023-11-19T13:42:32;15.83;;;6.30;;
70320;SDS011;61127;55.826;37.046;2023-11-19T13:44:58;14.18;;;6.03;;
70320;SDS011;61127;55.826;37.046;2023-11-19T13:47:24;18.55;;;6.28;;
70320;SDS011;61127;55.826;37.046;2023-11-19T13:49:50;13.85;;;6.35;;
70320;SDS011;61127;55.826;37.046;2023-11-19T13:52:16;15.93;;;6.47;;
70320;SDS011;61127;55.826;37.046;2023-11-19T13:54:42;14.60;;;6.55;;
70320;SDS011;61127;55.826;37.046;2023-11-19T13:57:08;17.30;;;6.60;;
70320;SDS011;61127;55.826;37.046;2023-11-19T13:59:39;17.63;;;6.70;;
70320;SDS011;61127;55.826;37.046;2023-11-19T14:02:05;22.90;;;6.80;;
70320;SDS011;61127;55.826;37.046;2023-11-19T14:04:33;20.25;;;7.07;;
70320;SDS011;61127;55.826;37.046;2023-11-19T14:06:59;16.58;;;6.18;;
70320;SDS011;61127;55.826;37.046;2023-11-19T14:09:24;19.90;;;8.03;;
70320;SDS011;61127;55.826;37.046;2023-11-19T14:11:51;18.13;;;6.78;;
70320;SDS011;61127;55.826;37.046;2023-11-19T14:14:17;22.55;;;7.72;;
70320;SDS011;61127;55.826;37.046;2023-11-19T14:16:43;23.55;;;8.98;;
70320;SDS011;61127;55.826;37.046;2023-11-19T14:19:10;22.50;;;8.32;;
70320;SDS011;61127;55.826;37.046;2023-11-19T14:21:36;17.70;;;7.80;;
70320;SDS011;61127;55.826;37.046;2023-11-19T14:24:01;18.30;;;7.68;;
70320;SDS011;61127;55.826;37.046;2023-11-19T14:26:30;30.08;;;7.70;;
70320;SDS011;61127;55.826;37.046;2023-11-19T14:28:56;19.38;;;7.38;;
70320;SDS011;61127;55.826;37.046;2023-11-19T14:31:22;16.40;;;6.60;;
70320;SDS011;61127;55.826;37.046;2023-11-19T14:33:48;22.30;;;7.40;;
70320;SDS011;61127;55.826;37.046;2023-11-19T14:36:14;20.50;;;7.25;;
70320;SDS011;61127;55.826;37.046;2023-11-19T14:38:41;20.20;;;7.50;;
70320;SDS011;61127;55.826;37.046;2023-11-19T14:41:07;22.07;;;8.23;;
70320;SDS011;61127;55.826;37.046;2023-11-19T14:43:35;28.33;;;10.30;;
70320;SDS011;61127;55.826;37.046;2023-11-19T14:46:04;26.70;;;9.00;;
70320;SDS011;61127;55.826;37.046;2023-11-19T14:48:32;20.88;;;8.00;;
70320;SDS011;61127;55.826;37.046;2023-11-19T14:51:01;24.73;;;8.43;;
70320;SDS011;61127;55.826;37.046;2023-11-19T14:53:28;18.38;;;7.88;;
70320;SDS011;61127;55.826;37.046;2023-11-19T14:55:55;20.80;;;7.80;;
70320;SDS011;61127;55.826;37.046;2023-11-19T14:58:22;19.30;;;7.25;;
70320;SDS011;61127;55.826;37.046;2023-11-19T15:00:48;22.45;;;7.90;;